Time;durP1;ratioP1;P1;durP2;ratioP2;P2;SDS_P1;SDS_P2;PMS_P1;PMS_P2;Temp;Humidity;BMP_temperature;BMP_pressure;BME280_temperature;BME280_humidity;BME280_pressure;Samples;Min_cycle;Max_cycle;Signal;HPM_P1;HPM_P2
2023/03/21 00:02:53;;;;;;;26.70;16.40;;;;;;;9.36;90.09;100604.95;105102;1258;73849;-60
2023/03/21 00:06:24;;;;;;;25.80;16.90;;;;;;;9.38;90.13;100601.59;105266;1259;69226;-59
2023/03/21 00:09:59;;;;;;;30.10;18.70;;;;;;;9.39;90.33;100602.61;105295;1261;69240;-60
2023/03/21 00:13:48;;;;;;;;;;;;;;;;;;;;;
2023/03/21 00:17:16;;;;;;;30.30;18.90;;;;;;;9.33;90.49;100605.77;105072;1259;83416;-58
2023/03/21 00:24:47;;;;;;;;;;;;;;;;;;;;;
2023/03/21 00:28:17;;;;;;;29.80;17.60;;;;;;;9.21;90.28;100593.73;105273;1255;69189;-61
2023/03/21 00:31:47;;;;;;;;;;;;;;;9.18;90.60;100589.98;105275;1254;74084;-60
2023/03/21 00:35:24;;;;;;;25.30;16.30;;;;;;;9.16;90.69;100582.86;105349;1255;83434;-59
2023/03/21 00:39:26;;;;;;;26.00;17.00;;;;;;;9.17;90.83;100573.60;105467;1254;73240;-58
2023/03/21 00:42:44;;;;;;;27.60;17.50;;;;;;;9.16;90.92;100574.13;105108;1256;69480;-61
2023/03/21 00:46:29;;;;;;;30.20;18.20;;;;;;;9.16;91.03;100572.41;105314;1257;69202;-60
2023/03/21 00:50:07;;;;;;;31.90;19.00;;;;;;;9.10;91.21;100565.44;105219;1254;74185;-60
2023/03/21 00:53:41;;;;;;;28.70;17.40;;;;;;;9.04;91.05;100567.35;105124;1255;82630;-63
2023/03/21 00:57:22;;;;;;;;;;;;;;;;;;;;;
2023/03/21 01:01:21;;;;;;;28.60;17.70;;;;;;;9.02;91.35;100563.75;105222;1254;69214;-61
2023/03/21 01:04:56;;;;;;;;;;;;;;;;;;;;;
2023/03/21 01:08:30;;;;;;;;;;;;;;;;;;;;;
2023/03/21 01:12:40;;;;;;;29.20;18.50;;;;;;;8.97;91.27;100564.41;105389;1257;84272;-60
2023/03/21 01:19:44;;;;;;;33.00;19.70;;;;;;;8.88;91.69;100564.81;105283;1254;69234;-57
2023/03/21 01:23:41;;;;;;;28.80;17.70;;;;;;;8.84;91.44;100569.64;105183;1254;69231;-64
2023/03/21 01:27:10;;;;;;;36.40;19.20;;;;;;;8.82;91.65;100572.14;105326;1255;74559;-62
2023/03/21 01:30:52;;;;;;;28.50;17.50;;;;;;;8.79;91.53;100579.02;105244;1254;83280;-60
2023/03/21 01:34:31;;;;;;;28.90;17.70;;;;;;;8.77;91.67;100586.56;105411;1257;72840;-62
2023/03/21 01:38:14;;;;;;;28.60;17.30;;;;;;;8.76;91.72;100590.41;105175;1258;69227;-58
2023/03/21 01:42:09;;;;;;;29.90;17.50;;;;;;;8.76;91.76;100588.14;105217;1258;69204;-59
2023/03/21 01:45:56;;;;;;;31.80;19.40;;;;;;;8.74;92.04;100587.51;104696;1268;73991;-59
2023/03/21 01:49:51;;;;;;;30.50;19.80;;;;;;;8.70;92.41;100582.02;104375;1273;83432;-61
2023/03/21 01:53:31;;;;;;;34.70;20.10;;;;;;;8.66;92.29;100572.91;103825;1273;74231;-60
2023/03/21 01:57:15;;;;;;;;;;;;;;;;;;;;;
2023/03/21 02:00:58;;;;;;;;;;;;;;;;;;;;;
2023/03/21 02:04:54;;;;;;;34.50;19.60;;;;;;;8.64;92.53;100569.46;103402;1283;74867;-60
2023/03/21 02:12:17;;;;;;;;;;;;;;;;;;;;;
2023/03/21 02:16:10;;;;;;;28.40;17.80;;;;;;;8.65;92.57;100557.43;102440;1286;69390;-60
2023/03/21 02:20:07;;;;;;;31.50;19.30;;;;;;;8.66;92.66;100564.02;102573;1290;69199;-61
2023/03/21 02:23:31;;;;;;;;;;;;;;;;;;;;;
2023/03/21 02:27:32;;;;;;;;;;;;;;;;;;;;;
2023/03/21 02:32:09;;;;;;;34.00;20.30;;;;;;;8.54;92.68;100565.56;102382;1292;74822;-60
2023/03/21 02:36:03;;;;;;;31.70;20.40;;;;;;;8.53;92.70;100565.22;102168;1294;69531;-60
2023/03/21 02:39:16;;;;;;;;;;;;;;;;;;;;;
2023/03/21 02:42:53;;;;;;;31.90;19.00;;;;;;;8.55;92.91;100562.92;102251;1291;600820;-58
2023/03/21 02:46:03;;;;;;;31.50;19.50;;;;;;;8.56;92.97;100566.20;104648;1266;69242;-58
2023/03/21 02:49:19;;;;;;;31.30;19.00;;;;;;;8.60;93.13;100564.73;104652;1269;69225;-58
2023/03/21 02:52:15;;;;;;;27.40;17.80;;;;;;;8.60;93.06;100566.45;104702;1267;72474;-59
2023/03/21 02:55:26;;;;;;;34.10;19.90;;;;;;;8.56;92.99;100564.13;100673;1270;5457204;-57
2023/03/21 02:58:26;;;;;;;36.80;21.20;;;;;;;8.53;93.15;100567.66;104723;1267;72856;-61
2023/03/21 03:01:29;;;;;;;34.70;22.00;;;;;;;8.52;93.20;100571.20;104716;1264;69230;-62
2023/03/21 03:04:30;;;;;;;33.10;20.40;;;;;;;8.51;93.05;100572.79;104741;1264;69090;-60
2023/03/21 03:07:33;;;;;;;35.20;20.00;;;;;;;8.50;92.92;100574.54;104748;1267;72714;-59
2023/03/21 03:10:46;;;;;;;31.90;18.70;;;;;;;8.47;92.78;100579.50;104394;1275;83624;-60
2023/03/21 03:14:15;;;;;;;31.70;18.60;;;;;;;8.46;93.10;100579.86;103682;1281;73236;-62
2023/03/21 03:17:57;;;;;;;32.90;19.30;;;;;;;8.46;93.26;100583.20;103082;1290;69704;-59
2023/03/21 03:21:16;;;;;;;32.90;19.20;;;;;;;8.46;93.28;100582.50;103147;1288;69239;-59
2023/03/21 03:24:30;;;;;;;31.40;19.10;;;;;;;8.45;93.40;100583.02;102951;1283;73014;-59
2023/03/21 03:27:28;;;;;;;28.90;18.80;;;;;;;8.43;93.32;100584.27;103063;1288;83985;-59
2023/03/21 03:30:31;;;;;;;33.50;21.00;;;;;;;8.42;93.51;100587.27;103114;1284;72980;-60
2023/03/21 03:33:36;;;;;;;34.20;20.50;;;;;;;8.40;93.74;100582.45;102983;1283;69322;-62
2023/03/21 03:36:50;;;;;;;32.50;20.10;;;;;;;8.39;93.68;100582.13;102855;1288;69371;-60
2023/03/21 03:40:07;;;;;;;;;;;;;;;;;;;;;
2023/03/21 03:43:21;;;;;;;33.40;20.30;;;;;;;8.39;93.32;100588.05;103082;1284;83860;-59
2023/03/21 03:46:33;;;;;;;35.60;20.60;;;;;;;8.39;93.53;100589.61;102871;1288;73991;-60
2023/03/21 03:49:19;;;;;;;29.70;18.70;;;;;;;8.41;93.73;100591.98;103765;1277;69398;-59
2023/03/21 03:52:21;;;;;;;31.50;19.00;;;;;;;8.43;93.73;100591.09;104293;1264;69237;-59
2023/03/21 03:55:26;;;;;;;27.90;18.90;;;;;;;8.44;93.35;100591.40;104761;1264;73422;-59
2023/03/21 03:58:31;;;;;;;32.20;19.10;;;;;;;8.42;93.79;100592.31;104725;1267;83208;-58
2023/03/21 04:01:27;;;;;;;33.60;20.50;;;;;;;8.41;93.71;100589.91;104732;1263;72798;-58
2023/03/21 04:04:30;;;;;;;34.90;21.70;;;;;;;8.38;93.62;100589.63;104693;1264;69210;-59
2023/03/21 04:07:29;;;;;;;34.30;20.40;;;;;;;8.37;93.86;100590.50;105132;1256;69222;-60
2023/03/21 04:10:31;;;;;;;30.20;18.70;;;;;;;8.39;93.47;100590.14;105116;1255;72265;-58
2023/03/21 04:13:34;;;;;;;30.10;18.70;;;;;;;8.36;93.36;100586.71;105096;1256;83054;-60
2023/03/21 04:16:40;;;;;;;31.50;19.50;;;;;;;8.35;93.41;100589.35;105132;1256;73767;-63
2023/03/21 04:19:51;;;;;;;28.70;18.20;;;;;;;8.38;93.66;100588.59;105156;1260;69164;-60
2023/03/21 04:23:08;;;;;;;31.80;19.20;;;;;;;8.37;93.60;100593.30;105209;1256;69067;-56
2023/03/21 04:26:08;;;;;;;29.30;19.70;;;;;;;8.32;93.64;100593.77;105162;1260;72260;-62
2023/03/21 04:29:14;;;;;;;;;;;;;;;;;;;;;
2023/03/21 04:32:52;;;;;;;36.90;21.20;;;;;;;8.30;93.62;100589.98;104670;1263;72472;-60
2023/03/21 04:36:05;;;;;;;28.50;18.00;;;;;;;8.33;93.78;100591.31;104711;1266;69275;-58
2023/03/21 04:39:24;;;;;;;27.90;17.00;;;;;;;8.34;93.75;100597.20;104706;1267;69559;-60
2023/03/21 04:42:38;;;;;;;30.10;19.10;;;;;;;8.33;93.48;100596.36;104757;1263;72391;-58
2023/03/21 04:45:43;;;;;;;26.40;17.60;;;;;;;8.32;93.59;100597.95;104790;1266;83402;-60
2023/03/21 04:48:48;;;;;;;32.80;20.50;;;;;;;8.31;93.66;100598.68;104696;1266;74144;-63
2023/03/21 04:52:04;;;;;;;30.60;19.70;;;;;;;8.31;94.09;100596.23;104695;1262;69273;-59
2023/03/21 04:55:18;;;;;;;;;;;;;;;;;;;;;
2023/03/21 04:58:19;;;;;;;36.30;21.10;;;;;;;8.30;94.18;100596.95;104764;1263;73580;-59
2023/03/21 05:01:30;;;;;;;38.50;20.20;;;;;;;8.31;93.68;100597.44;104689;1263;82553;-61
2023/03/21 05:04:30;;;;;;;;;;;;;;;;;;;;;
2023/03/21 05:07:34;;;;;;;32.10;20.20;;;;;;;8.32;93.89;100597.42;104974;1260;69155;-62
2023/03/21 05:10:31;;;;;;;31.40;19.60;;;;;;;8.36;93.92;100602.91;105026;1261;69216;-58
2023/03/21 05:13:30;;;;;;;26.40;17.30;;;;;;;8.39;94.17;100607.55;105051;1262;72311;-63
2023/03/21 05:16:56;;;;;;;28.60;18.00;;;;;;;8.39;93.83;100607.89;105065;1258;82469;-60
2023/03/21 05:19:55;;;;;;;30.40;19.60;;;;;;;8.34;93.82;100605.73;105035;1258;73632;-60
2023/03/21 05:23:04;;;;;;;36.00;21.90;;;;;;;8.33;94.25;100604.19;105057;1257;69183;-62
2023/03/21 05:26:02;;;;;;;32.60;20.30;;;;;;;8.34;94.31;100604.69;105082;1261;69286;-57
2023/03/21 05:29:14;;;;;;;32.40;18.60;;;;;;;8.32;93.86;100604.58;105066;1257;73256;-58
2023/03/21 05:32:09;;;;;;;30.30;17.10;;;;;;;8.33;94.12;100610.10;105104;1257;82892;-54
2023/03/21 05:34:53;;;;;;;36.10;20.20;;;;;;;8.33;93.71;100610.29;105275;1259;72803;-55
2023/03/21 05:37:38;;;;;;;30.20;18.60;;;;;;;8.35;94.14;100611.13;105121;1262;69256;-54
2023/03/21 05:40:14;;;;;;;31.70;18.50;;;;;;;8.37;94.14;100612.98;105165;1258;69193;-55
2023/03/21 05:42:54;;;;;;;27.70;17.60;;;;;;;8.40;94.41;100613.96;105175;1256;73281;-53
2023/03/21 05:45:34;;;;;;;34.50;21.10;;;;;;;8.42;94.22;100616.36;105298;1260;83098;-53
2023/03/21 05:48:18;;;;;;;36.40;21.40;;;;;;;8.43;94.35;100617.73;105121;1257;72752;-54
2023/03/21 05:51:22;;;;;;;36.10;21.70;;;;;;;8.44;94.47;100619.27;105113;1258;69130;-55
2023/03/21 05:53:57;;;;;;;35.90;20.70;;;;;;;8.48;94.46;100620.75;105164;1261;69225;-56
2023/03/21 05:56:35;;;;;;;33.70;20.70;;;;;;;8.55;94.34;100622.15;105194;1261;71335;-55
2023/03/21 05:59:26;;;;;;;31.40;19.80;;;;;;;8.60;94.13;100625.49;105166;1257;83400;-57
2023/03/21 06:02:04;;;;;;;31.90;19.40;;;;;;;8.64;94.02;100624.16;105231;1256;73635;-55
2023/03/21 06:04:51;;;;;;;33.30;19.60;;;;;;;8.68;94.02;100626.34;105140;1262;69090;-54
2023/03/21 06:07:35;;;;;;;29.40;19.90;;;;;;;8.71;93.77;100626.44;105192;1256;69224;-55
2023/03/21 06:10:14;;;;;;;36.40;22.10;;;;;;;8.72;93.87;100625.70;105200;1256;72157;-56
2023/03/21 06:12:50;;;;;;;34.40;22.10;;;;;;;8.74;93.93;100627.77;105207;1256;83396;-53
2023/03/21 06:15:30;;;;;;;52.30;28.00;;;;;;;8.75;93.84;100628.09;105162;1260;73630;-52
2023/03/21 06:18:22;;;;;;;65.40;32.30;;;;;;;8.76;93.75;100634.15;105177;1258;69335;-53
2023/03/21 06:21:27;;;;;;;48.80;25.10;;;;;;;8.77;93.47;100632.72;105125;1259;69182;-55
2023/03/21 06:24:10;;;;;;;28.50;20.00;;;;;;;8.80;93.50;100635.09;105104;1258;73517;-53
2023/03/21 06:26:53;;;;;;;28.20;18.70;;;;;;;8.84;93.25;100637.24;105201;1260;83477;-53
2023/03/21 06:29:35;;;;;;;31.30;20.70;;;;;;;8.86;93.01;100641.55;105146;1257;72674;-52
2023/03/21 06:32:22;;;;;;;28.60;20.60;;;;;;;8.85;92.80;100638.96;105224;1256;69129;-57
2023/03/21 06:35:03;;;;;;;34.10;21.50;;;;;;;8.84;92.49;100641.60;105220;1256;69079;-56
2023/03/21 06:37:44;;;;;;;27.10;19.10;;;;;;;8.85;92.80;100644.19;105144;1262;73391;-58
2023/03/21 06:40:21;;;;;;;24.10;16.10;;;;;;;8.85;92.40;100645.27;105324;1260;83365;-56
2023/03/21 06:43:27;;;;;;;27.20;16.30;;;;;;;8.86;91.77;100647.48;105166;1261;73710;-58
2023/03/21 06:46:06;;;;;;;25.80;14.60;;;;;;;8.89;91.49;100643.04;105154;1257;69346;-58
2023/03/21 06:49:04;;;;;;;22.80;14.10;;;;;;;8.93;91.53;100645.88;105172;1261;69144;-58
2023/03/21 06:51:44;;;;;;;30.30;18.20;;;;;;;8.95;91.00;100650.38;105098;1260;73417;-54
2023/03/21 06:54:25;;;;;;;25.30;16.40;;;;;;;8.92;91.07;100653.23;105151;1260;82557;-53
2023/03/21 06:57:09;;;;;;;28.10;18.40;;;;;;;8.90;91.12;100657.14;105196;1258;73143;-54
2023/03/21 06:59:50;;;;;;;27.10;17.40;;;;;;;8.89;90.86;100658.20;105132;1260;69164;-52
2023/03/21 07:02:32;;;;;;;25.70;17.60;;;;;;;8.88;91.08;100660.33;105086;1258;69395;-54
2023/03/21 07:05:18;;;;;;;22.80;15.20;;;;;;;8.90;91.06;100664.61;105270;1258;73126;-54
2023/03/21 07:08:00;;;;;;;22.20;14.30;;;;;;;8.95;90.71;100664.48;105112;1258;82103;-54
2023/03/21 07:10:42;;;;;;;21.30;12.50;;;;;;;9.01;90.49;100663.84;105143;1259;74170;-55
2023/03/21 07:13:22;;;;;;;20.40;12.60;;;;;;;9.07;90.10;100658.79;105082;1257;69082;-54
2023/03/21 07:16:14;;;;;;;20.10;12.30;;;;;;;9.11;89.77;100661.79;105047;1263;69207;-56
2023/03/21 07:18:57;;;;;;;23.70;14.90;;;;;;;9.15;89.87;100668.67;105233;1261;73579;-55
2023/03/21 07:21:35;;;;;;;20.90;11.80;;;;;;;9.21;89.54;100667.65;105155;1262;83478;-52
2023/03/21 07:24:12;;;;;;;17.10;11.20;;;;;;;9.25;89.41;100664.05;105106;1261;72763;-52
2023/03/21 07:26:43;;;;;;;17.80;11.70;;;;;;;9.29;89.00;100666.90;105574;1261;69337;-51
2023/03/21 07:29:21;;;;;;;18.30;12.40;;;;;;;9.31;88.76;100668.41;105119;1257;69693;-53
2023/03/21 07:31:56;;;;;;;23.20;14.40;;;;;;;9.34;88.73;100668.52;105188;1257;73307;-53
2023/03/21 07:34:31;;;;;;;21.80;15.00;;;;;;;9.40;88.72;100673.57;105358;1261;83347;-55
2023/03/21 07:37:08;;;;;;;25.40;15.80;;;;;;;9.47;88.68;100675.67;105064;1258;72855;-55
2023/03/21 07:39:42;;;;;;;22.50;15.50;;;;;;;9.53;88.61;100676.00;105245;1261;69176;-54
2023/03/21 07:42:20;;;;;;;23.50;14.50;;;;;;;9.58;88.53;100676.89;105074;1263;69133;-53
2023/03/21 07:44:53;;;;;;;21.30;14.80;;;;;;;9.62;88.54;100677.47;105133;1264;74477;-51
2023/03/21 07:47:28;;;;;;;25.50;17.20;;;;;;;9.68;88.70;100676.78;105283;1259;82759;-51
2023/03/21 07:50:08;;;;;;;24.30;16.80;;;;;;;9.78;88.83;100676.34;105109;1258;73093;-50
2023/03/21 07:52:41;;;;;;;26.30;18.60;;;;;;;9.85;88.73;100678.04;105320;1257;69094;-51
2023/03/21 07:55:18;;;;;;;26.80;18.60;;;;;;;9.89;88.38;100678.45;105192;1258;69847;-51
2023/03/21 07:57:53;;;;;;;28.00;17.50;;;;;;;9.89;88.21;100676.36;105093;1263;74235;-52
2023/03/21 08:00:27;;;;;;;27.50;18.80;;;;;;;9.90;87.92;100676.69;105033;1264;83461;-53
2023/03/21 08:02:59;;;;;;;23.10;15.70;;;;;;;9.92;87.66;100678.02;105457;1258;73637;-55
2023/03/21 08:05:38;;;;;;;25.00;16.00;;;;;;;9.95;87.24;100675.65;105223;1258;69168;-54
2023/03/21 08:08:13;;;;;;;20.00;13.60;;;;;;;9.98;86.95;100678.70;105150;1259;69769;-54
2023/03/21 08:10:47;;;;;;;20.30;14.20;;;;;;;10.00;86.78;100680.05;105022;1263;73475;-54
2023/03/21 08:13:31;;;;;;;23.60;15.20;;;;;;;9.99;86.76;100684.08;105286;1257;83940;-56
2023/03/21 08:16:09;;;;;;;23.50;15.00;;;;;;;9.95;86.62;100683.84;105117;1258;73865;-51
2023/03/21 08:18:44;;;;;;;23.90;17.60;;;;;;;9.94;86.64;100684.21;105138;1257;69019;-51
2023/03/21 08:21:16;;;;;;;20.90;16.20;;;;;;;9.94;86.59;100684.92;105184;1261;69894;-53
2023/03/21 08:23:50;;;;;;;25.00;18.50;;;;;;;9.94;86.54;100687.73;105095;1258;73885;-52
2023/03/21 08:26:25;;;;;;;25.40;16.60;;;;;;;9.94;86.62;100684.91;105091;1261;82369;-52
2023/03/21 08:28:59;;;;;;;25.20;14.90;;;;;;;9.94;86.19;100688.75;105122;1257;73837;-50
2023/03/21 08:31:35;;;;;;;22.00;14.10;;;;;;;9.94;86.23;100688.23;105102;1259;69355;-51
2023/03/21 08:34:09;;;;;;;19.60;14.30;;;;;;;9.92;86.09;100689.36;105093;1257;70018;-51
2023/03/21 08:36:43;;;;;;;21.40;14.50;;;;;;;9.85;86.28;100694.62;105091;1257;73245;-53
2023/03/21 08:39:22;;;;;;;21.00;15.60;;;;;;;9.81;86.22;100698.23;105217;1261;83826;-51
2023/03/21 08:42:00;;;;;;;21.10;16.00;;;;;;;9.80;86.42;100699.48;105075;1257;72838;-50
2023/03/21 08:44:38;;;;;;;25.10;17.70;;;;;;;9.77;86.54;100701.31;105066;1261;69208;-51
2023/03/21 08:47:15;;;;;;;21.30;14.80;;;;;;;9.70;86.29;100703.61;105075;1261;69178;-50
2023/03/21 08:49:52;;;;;;;22.60;14.90;;;;;;;9.66;85.93;100705.30;105073;1257;74312;-51
2023/03/21 08:52:24;;;;;;;22.20;14.80;;;;;;;9.63;86.03;100704.84;105102;1260;83407;-49
2023/03/21 08:55:02;;;;;;;21.80;14.40;;;;;;;9.61;86.23;100707.34;105241;1260;73411;-53
2023/03/21 08:57:40;;;;;;;20.60;15.40;;;;;;;9.57;86.62;100706.75;105216;1260;70335;-52
2023/03/21 09:00:19;;;;;;;26.80;17.40;;;;;;;9.54;86.87;100705.98;105374;1256;70025;-52
2023/03/21 09:02:54;;;;;;;27.50;17.40;;;;;;;9.49;86.82;100705.60;105276;1256;74060;-55
2023/03/21 09:05:40;;;;;;;21.90;15.50;;;;;;;9.42;86.87;100708.74;105334;1260;83622;-53
2023/03/21 09:08:26;;;;;;;18.90;14.10;;;;;;;9.39;86.93;100711.80;105156;1261;73092;-57
2023/03/21 09:11:12;;;;;;;17.20;12.60;;;;;;;9.38;86.92;100715.64;105108;1260;69167;-60
2023/03/21 09:14:15;;;;;;;;;;;;;;;;;;;;;
2023/03/21 09:17:07;;;;;;;22.30;14.20;;;;;;;9.42;87.09;100715.73;105136;1256;74120;-60
2023/03/21 09:19:49;;;;;;;25.30;16.40;;;;;;;9.50;87.21;100718.83;105125;1261;83345;-60
2023/03/21 09:22:37;;;;;;;24.10;16.60;;;;;;;9.60;87.11;100717.85;105130;1256;73897;-60
2023/03/21 09:25:25;;;;;;;23.50;16.50;;;;;;;9.66;87.07;100717.33;105113;1256;69178;-58
2023/03/21 09:28:18;;;;;;;;;;;;;;;;;;;;;
2023/03/21 09:31:00;;;;;;;23.90;16.10;;;;;;;9.79;86.74;100719.93;105201;1256;74353;-62
2023/03/21 09:33:42;;;;;;;25.20;16.70;;;;;;;9.84;86.87;100718.39;105142;1260;83630;-61
2023/03/21 09:36:33;;;;;;;32.80;18.60;;;;;;;9.86;86.74;100720.77;105163;1256;73424;-64
2023/03/21 09:39:16;;;;;;;25.50;16.80;;;;;;;9.90;86.44;100718.92;105192;1256;69185;-62
2023/03/21 09:42:29;;;;;;;20.90;14.30;;;;;;;9.90;86.14;100717.69;105216;1260;69251;-63
2023/03/21 09:45:22;;;;;;;21.20;15.20;;;;;;;9.80;86.24;100722.50;105193;1260;73347;-73
2023/03/21 09:48:09;;;;;;;22.60;16.30;;;;;;;9.75;86.38;100722.15;105176;1256;83513;-63
2023/03/21 09:50:58;;;;;;;25.20;17.50;;;;;;;9.71;86.28;100718.94;105198;1256;73657;-65
2023/03/21 09:53:49;;;;;;;25.70;17.60;;;;;;;9.68;86.21;100721.63;105207;1260;69210;-64
2023/03/21 09:56:39;;;;;;;28.90;19.80;;;;;;;9.67;86.45;100722.55;105201;1260;69182;-71
2023/03/21 09:59:32;;;;;;;29.70;19.40;;;;;;;9.68;86.70;100718.87;105074;1262;74403;-66
2023/03/21 10:02:27;;;;;;;30.60;21.70;;;;;;;9.74;86.60;100716.77;105149;1260;83469;-69
2023/03/21 10:05:22;;;;;;;30.20;20.60;;;;;;;9.85;86.65;100715.23;105165;1261;73735;-67
2023/03/21 10:08:35;;;;;;;28.10;21.70;;;;;;;10.01;86.68;100710.21;105147;1260;69242;-71
2023/03/21 10:11:32;;;;;;;30.50;23.20;;;;;;;10.23;86.63;100705.19;105200;1256;69139;-71
2023/03/21 10:14:20;;;;;;;30.30;23.70;;;;;;;10.46;86.53;100706.77;104755;1262;73153;-68
2023/03/21 10:17:11;;;;;;;31.50;24.50;;;;;;;10.65;85.84;100706.52;104762;1264;83282;-68
2023/03/21 10:20:34;;;;;;;31.60;23.80;;;;;;;10.79;85.10;100708.67;104765;1262;73899;-70
2023/03/21 10:23:11;;;;;;;28.00;24.10;;;;;;;10.99;85.32;100705.57;104224;1269;69279;-69
2023/03/21 10:25:57;;;;;;;31.60;24.10;;;;;;;11.19;84.99;100706.30;104390;1269;69363;-68
2023/03/21 10:28:40;;;;;;;30.50;24.50;;;;;;;11.25;84.34;100699.23;104354;1269;74215;-67
2023/03/21 10:31:32;;;;;;;43.70;29.50;;;;;;;11.32;83.93;100702.85;104367;1269;83578;-69
2023/03/21 10:34:18;;;;;;;28.00;21.70;;;;;;;11.41;84.00;100706.04;104379;1269;72864;-69
2023/03/21 10:36:55;;;;;;;26.20;19.90;;;;;;;11.51;83.50;100706.02;104455;1273;69153;-68
2023/03/21 10:39:54;;;;;;;25.10;20.60;;;;;;;11.54;82.97;100700.68;104431;1269;69782;-67
2023/03/21 10:42:41;;;;;;;25.50;22.00;;;;;;;11.54;82.75;100697.34;104367;1273;73120;-72
2023/03/21 10:45:33;;;;;;;27.20;21.90;;;;;;;11.58;82.56;100699.98;104388;1273;83496;-66
2023/03/21 10:48:11;;;;;;;29.90;22.00;;;;;;;11.61;81.99;100697.59;104414;1269;73714;-70
2023/03/21 10:50:59;;;;;;;25.00;19.90;;;;;;;11.66;82.09;100695.33;104390;1269;69268;-67
2023/03/21 10:53:50;;;;;;;43.20;25.70;;;;;;;11.66;81.40;100693.92;104738;1263;69151;-67
2023/03/21 10:56:26;;;;;;;27.60;20.10;;;;;;;11.58;80.99;100692.30;104776;1263;74125;-64
2023/03/21 10:59:08;;;;;;;26.00;20.60;;;;;;;11.29;79.99;100695.08;104818;1263;81792;-67
2023/03/21 11:01:45;;;;;;;26.30;21.70;;;;;;;11.15;80.55;100696.78;105151;1256;73918;-67
2023/03/21 11:04:19;;;;;;;26.20;22.90;;;;;;;11.13;80.28;100696.50;105201;1256;69228;-66
2023/03/21 11:06:58;;;;;;;32.70;23.40;;;;;;;11.07;80.10;100693.39;105094;1261;69212;-69
2023/03/21 11:09:59;;;;;;;27.10;20.40;;;;;;;11.09;80.31;100692.97;105275;1256;74249;-66
2023/03/21 11:12:40;;;;;;;24.50;18.10;;;;;;;11.20;80.20;100693.98;105212;1258;83620;-68
2023/03/21 11:15:39;;;;;;;24.30;18.40;;;;;;;11.29;79.92;100685.80;105199;1256;72869;-68
2023/03/21 11:18:30;;;;;;;27.20;20.50;;;;;;;11.39;80.24;100684.58;105246;1256;69189;-69
2023/03/21 11:21:06;;;;;;;27.80;20.60;;;;;;;11.44;79.93;100684.77;105216;1256;69200;-68
2023/03/21 11:23:53;;;;;;;;;;;;;;;;;;;;;
2023/03/21 11:26:35;;;;;;;33.60;23.60;;;;;;;11.45;79.32;100681.74;105243;1258;83474;-67
2023/03/21 11:29:40;;;;;;;28.80;22.20;;;;;;;11.36;79.42;100678.88;105226;1258;73506;-66
2023/03/21 11:32:13;;;;;;;27.60;22.80;;;;;;;11.34;79.30;100677.39;105255;1256;69180;-65
2023/03/21 11:35:12;;;;;;;33.50;24.60;;;;;;;11.28;79.12;100676.23;105245;1258;69190;-68
2023/03/21 11:37:52;;;;;;;31.60;23.80;;;;;;;11.17;79.07;100679.23;105308;1256;74090;-67
2023/03/21 11:40:39;;;;;;;32.60;22.80;;;;;;;11.04;78.60;100677.61;105264;1258;82977;-68
2023/03/21 11:43:35;;;;;;;29.90;23.60;;;;;;;10.95;78.77;100679.12;105169;1262;73854;-67
2023/03/21 11:46:12;;;;;;;30.60;22.90;;;;;;;10.88;79.00;100677.06;105171;1260;69169;-68
2023/03/21 11:48:57;;;;;;;31.80;20.90;;;;;;;10.87;79.01;100674.66;105217;1258;69175;-66
2023/03/21 11:52:07;;;;;;;;;;;;;;;;;;;;;
2023/03/21 11:55:01;;;;;;;27.20;19.60;;;;;;;10.84;79.26;100669.69;105109;1260;83302;-68
2023/03/21 11:58:15;;;;;;;29.50;21.20;;;;;;;10.80;79.11;100666.17;105115;1257;73502;-67
2023/03/21 12:01:17;;;;;;;33.20;22.50;;;;;;;10.75;79.23;100666.88;104995;1267;69197;-70
2023/03/21 12:03:59;;;;;;;28.00;21.10;;;;;;;10.71;79.28;100665.77;105237;1258;69123;-69
2023/03/21 12:06:53;;;;;;;30.20;21.60;;;;;;;10.67;79.13;100663.10;105112;1260;74258;-67
2023/03/21 12:09:34;;;;;;;28.00;20.50;;;;;;;10.62;78.83;100661.16;105109;1256;82873;-70
2023/03/21 12:12:11;;;;;;;;;;;;;;;10.61;79.07;100660.35;105150;1256;74480;-66
2023/03/21 12:15:00;;;;;;;31.40;22.30;;;;;;;10.60;78.97;100656.71;105102;1256;69075;-68
2023/03/21 12:17:47;;;;;;;30.60;21.70;;;;;;;10.57;78.85;100655.42;105065;1258;69203;-66
2023/03/21 12:20:38;;;;;;;28.50;20.20;;;;;;;10.52;78.37;100656.25;105153;1256;73989;-69
2023/03/21 12:23:31;;;;;;;24.70;19.90;;;;;;;10.50;78.56;100655.08;105095;1258;83476;-73
2023/03/21 12:26:44;;;;;;;30.40;20.90;;;;;;;10.48;78.72;100652.70;105149;1256;74712;-73
2023/03/21 12:29:48;;;;;;;25.40;20.10;;;;;;;10.48;79.12;100652.73;105162;1259;69125;-73
2023/03/21 12:32:43;;;;;;;29.60;21.80;;;;;;;10.51;79.22;100648.10;104995;1256;69094;-71
2023/03/21 12:35:52;;;;;;;29.00;21.60;;;;;;;10.49;79.08;100646.56;105126;1256;74204;-71
2023/03/21 12:38:53;;;;;;;31.70;23.00;;;;;;;10.51;78.97;100645.30;105118;1256;83415;-74
2023/03/21 12:41:44;;;;;;;29.50;21.60;;;;;;;10.51;79.03;100641.98;105159;1256;73879;-72
2023/03/21 12:44:19;;;;;;;29.60;22.20;;;;;;;10.52;79.16;100638.61;105111;1256;69066;-71
2023/03/21 12:47:29;;;;;;;28.80;21.40;;;;;;;10.51;78.84;100633.05;105138;1256;69306;-70
2023/03/21 12:50:31;;;;;;;25.70;18.40;;;;;;;10.50;78.50;100629.77;104762;1265;73993;-70
2023/03/21 12:53:43;;;;;;;24.10;18.30;;;;;;;10.57;78.33;100626.23;104738;1263;83322;-72
2023/03/21 12:56:46;;;;;;;22.60;16.30;;;;;;;10.69;78.59;100619.52;104615;1263;72486;-70
2023/03/21 12:59:28;;;;;;;23.60;16.30;;;;;;;10.83;78.44;100614.13;104743;1261;69110;-70
2023/03/21 13:02:30;;;;;;;23.80;18.40;;;;;;;10.92;78.26;100612.27;104851;1262;69185;-70
2023/03/21 13:05:57;;;;;;;20.20;14.50;;;;;;;10.97;77.88;100606.48;104878;1263;73923;-70
2023/03/21 13:09:13;;;;;;;17.60;14.30;;;;;;;11.00;77.26;100607.78;104641;1266;83595;-72
2023/03/21 13:11:57;;;;;;;;;;;;;;;11.07;77.52;100606.33;104739;1263;73838;-73
2023/03/21 13:14:54;;;;;;;22.50;15.10;;;;;;;11.09;77.33;100605.02;104796;1267;69314;-73
2023/03/21 13:17:35;;;;;;;18.70;15.00;;;;;;;11.05;77.14;100602.36;104769;1265;69231;-74
2023/03/21 13:20:46;;;;;;;20.20;14.90;;;;;;;11.03;77.05;100602.95;104778;1263;74053;-70
2023/03/21 13:23:39;;;;;;;29.00;20.00;;;;;;;10.96;76.99;100602.84;104902;1265;83573;-74
2023/03/21 13:26:30;;;;;;;26.50;20.10;;;;;;;10.82;76.64;100602.65;104969;1256;73467;-72
2023/03/21 13:29:06;;;;;;;28.30;19.80;;;;;;;10.68;76.83;100598.77;105147;1258;69150;-72
2023/03/21 13:31:50;;;;;;;27.20;20.50;;;;;;;10.59;76.84;100601.15;105114;1256;69071;-77
2023/03/21 13:34:33;;;;;;;30.80;20.30;;;;;;;10.51;77.20;100597.58;105083;1256;74221;-71
2023/03/21 13:37:21;;;;;;;28.30;20.60;;;;;;;10.51;77.37;100592.73;105065;1258;81719;-72
2023/03/21 13:40:12;;;;;;;29.90;21.00;;;;;;;10.43;77.28;100589.11;104983;1256;73728;-67
2023/03/21 13:42:57;;;;;;;28.00;21.70;;;;;;;10.36;77.37;100588.64;104998;1255;69228;-72
2023/03/21 13:45:34;;;;;;;28.90;21.60;;;;;;;10.32;77.65;100588.80;105102;1256;69114;-70
2023/03/21 13:48:51;;;;;;;29.40;22.80;;;;;;;10.30;78.00;100585.52;105044;1260;73326;-72
2023/03/21 13:51:55;;;;;;;32.60;22.90;;;;;;;10.32;78.04;100581.45;105504;1256;83769;-72
2023/03/21 13:54:48;;;;;;;35.50;24.70;;;;;;;10.35;78.42;100580.65;105140;1257;73815;-72
2023/03/21 13:57:37;;;;;;;;;;;;;;;10.38;78.36;100581.77;105106;1256;69135;-75
2023/03/21 14:00:44;;;;;;;33.60;23.90;;;;;;;10.41;78.39;100582.04;105031;1258;69234;-71
2023/03/21 14:03:38;;;;;;;30.30;22.10;;;;;;;10.41;78.15;100583.05;104710;1262;74096;-73
2023/03/21 14:06:59;;;;;;;31.60;20.80;;;;;;;10.48;78.21;100577.58;104693;1267;83488;-74
2023/03/21 14:09:51;;;;;;;27.80;18.40;;;;;;;10.62;78.01;100571.88;104622;1262;73841;-72
2023/03/21 14:12:38;;;;;;;28.00;19.00;;;;;;;10.80;77.96;100569.14;104677;1262;69309;-74